Time;durP1;ratioP1;P1;durP2;ratioP2;P2;SDS_P1;SDS_P2;PMS_P1;PMS_P2;Temp;Humidity;BMP_temperature;BMP_pressure;BME280_temperature;BME280_humidity;BME280_pressure;Samples;Min_cycle;Max_cycle;Signal;HPM_P1;HPM_P2
2024/04/08 00:00:26;;;;;;;6.97;5.27;;;14.50;99.90;;;;;;5381612;26;20252;-70
2024/04/08 00:02:52;;;;;;;8.83;5.13;;;14.50;99.90;;;;;;5414539;26;20296;-70
2024/04/08 00:05:18;;;;;;;9.00;5.33;;;14.50;99.90;;;;;;5416778;26;20259;-70
2024/04/08 00:07:45;;;;;;;12.10;5.63;;;14.50;99.90;;;;;;5416658;26;20692;-72
2024/04/08 00:10:10;;;;;;;11.07;5.40;;;14.40;99.90;;;;;;5416360;26;20220;-70
2024/04/08 00:12:40;;;;;;;9.00;5.30;;;14.40;99.90;;;;;;5416866;26;20224;-70
2024/04/08 00:15:06;;;;;;;5.97;5.37;;;14.40;99.90;;;;;;5416859;26;20251;-70
2024/04/08 00:17:32;;;;;;;8.07;6.00;;;14.30;99.90;;;;;;5416801;26;20216;-70
2024/04/08 00:19:58;;;;;;;10.40;5.87;;;14.30;99.90;;;;;;5397106;26;20272;-70
2024/04/08 00:22:23;;;;;;;7.20;5.73;;;14.30;99.90;;;;;;5381501;26;20217;-70
2024/04/08 00:24:53;;;;;;;7.43;5.00;;;14.30;99.90;;;;;;5381464;26;20273;-72
2024/04/08 00:27:19;;;;;;;7.87;5.73;;;14.20;99.90;;;;;;5381018;26;20269;-71
2024/04/08 00:29:44;;;;;;;6.87;5.67;;;14.20;99.90;;;;;;5381001;26;20213;-70
2024/04/08 00:32:10;;;;;;;11.00;5.63;;;14.20;99.90;;;;;;5381001;26;20237;-70
2024/04/08 00:34:36;;;;;;;7.43;5.47;;;14.20;99.90;;;;;;5398606;26;20224;-71
2024/04/08 00:37:01;;;;;;;7.97;6.10;;;14.20;99.90;;;;;;5415777;26;20236;-70
2024/04/08 00:39:27;;;;;;;10.87;5.90;;;14.20;99.90;;;;;;5416408;26;20220;-71
2024/04/08 00:41:52;;;;;;;7.87;5.53;;;14.20;99.90;;;;;;5416346;26;20240;-70
2024/04/08 00:44:18;;;;;;;7.03;5.83;;;14.20;99.90;;;;;;5414090;26;20220;-71
2024/04/08 00:46:46;;;;;;;11.23;6.80;;;14.10;99.90;;;;;;5410651;26;20241;-70
2024/04/08 00:49:13;;;;;;;9.87;6.47;;;14.10;99.90;;;;;;5380375;26;20343;-70
2024/04/08 00:51:39;;;;;;;7.10;6.23;;;14.10;99.90;;;;;;5380946;26;20752;-71
2024/04/08 00:54:05;;;;;;;8.83;6.23;;;14.10;99.90;;;;;;5380589;26;20221;-70
2024/04/08 00:56:31;;;;;;;7.97;6.53;;;14.10;99.90;;;;;;5380795;26;20217;-71
2024/04/08 00:58:57;;;;;;;15.03;7.10;;;14.10;99.90;;;;;;5380341;26;20260;-70
2024/04/08 01:01:24;;;;;;;7.93;6.60;;;14.20;99.90;;;;;;5383233;26;21057;-71
2024/04/08 01:03:53;;;;;;;8.43;6.53;;;14.10;99.90;;;;;;5415674;26;20271;-70
2024/04/08 01:06:19;;;;;;;8.40;7.03;;;14.10;99.90;;;;;;5416638;26;20308;-70
2024/04/08 01:08:44;;;;;;;9.17;7.17;;;14.20;99.90;;;;;;5415620;26;20755;-71
2024/04/08 01:11:11;;;;;;;8.27;6.93;;;14.10;99.90;;;;;;5415830;26;20263;-70
2024/04/08 01:13:37;;;;;;;8.93;6.80;;;14.10;99.90;;;;;;5416145;26;20209;-70
2024/04/08 01:16:03;;;;;;;9.10;6.67;;;14.20;99.90;;;;;;5413624;26;20262;-70
2024/04/08 01:18:28;;;;;;;11.77;6.80;;;14.20;99.90;;;;;;5415477;26;20793;-70
2024/04/08 01:20:54;;;;;;;9.27;7.37;;;14.10;99.90;;;;;;5415975;26;20247;-70
2024/04/08 01:23:21;;;;;;;8.53;6.97;;;14.10;99.90;;;;;;5415858;26;20665;-70
2024/04/08 01:25:46;;;;;;;10.13;6.90;;;14.10;99.90;;;;;;5415908;26;20208;-70
2024/04/08 01:28:13;;;;;;;12.63;7.27;;;14.10;99.90;;;;;;5415210;26;20208;-71
2024/04/08 01:30:39;;;;;;;12.40;7.53;;;14.10;99.90;;;;;;5389900;26;20271;-72
2024/04/08 01:33:05;;;;;;;9.80;7.27;;;14.10;99.90;;;;;;5378604;26;20217;-70
2024/04/08 01:35:30;;;;;;;9.63;7.63;;;14.10;99.90;;;;;;5386696;26;20216;-70
2024/04/08 01:37:56;;;;;;;10.63;7.57;;;14.10;99.90;;;;;;5413710;26;20212;-70
2024/04/08 01:40:21;;;;;;;12.30;7.80;;;14.00;99.90;;;;;;5414217;26;20208;-70
2024/04/08 01:42:47;;;;;;;13.17;7.13;;;14.00;99.90;;;;;;5413929;26;20576;-70
2024/04/08 01:45:12;;;;;;;9.70;7.63;;;14.00;99.90;;;;;;5411615;26;20278;-70
2024/04/08 01:47:38;;;;;;;8.97;8.00;;;14.00;99.90;;;;;;5412447;26;20305;-70
2024/04/08 01:50:05;;;;;;;12.87;7.77;;;13.90;99.90;;;;;;5415223;26;20268;-70
2024/04/08 01:52:30;;;;;;;12.63;7.17;;;13.80;99.90;;;;;;5415088;26;20224;-69
2024/04/08 01:54:56;;;;;;;10.17;7.40;;;13.60;99.90;;;;;;5414527;26;20658;-69
2024/04/08 01:57:22;;;;;;;8.47;7.10;;;13.50;99.90;;;;;;5404346;26;20225;-69
2024/04/08 01:59:47;;;;;;;11.67;7.37;;;13.40;99.90;;;;;;5379568;26;20306;-70
2024/04/08 02:02:13;;;;;;;10.57;7.97;;;13.40;99.90;;;;;;5379746;26;20233;-70
2024/04/08 02:04:38;;;;;;;12.43;8.17;;;13.30;99.90;;;;;;5379770;26;20772;-70
2024/04/08 02:07:04;;;;;;;9.17;7.93;;;13.30;99.90;;;;;;5379645;26;20249;-70
2024/04/08 02:09:30;;;;;;;14.73;8.00;;;13.20;99.90;;;;;;5379428;26;20269;-71
2024/04/08 02:11:55;;;;;;;13.30;8.27;;;13.20;99.90;;;;;;5380020;26;20241;-70
2024/04/08 02:14:21;;;;;;;11.27;8.90;;;13.20;99.90;;;;;;5379797;26;20556;-70
2024/04/08 02:16:47;;;;;;;10.93;8.67;;;13.20;99.90;;;;;;5379656;26;20213;-70
2024/04/08 02:19:12;;;;;;;13.63;9.00;;;13.20;99.90;;;;;;5379471;26;20217;-71
2024/04/08 02:21:38;;;;;;;9.93;8.73;;;13.10;99.90;;;;;;5378880;26;20229;-70
2024/04/08 02:24:03;;;;;;;13.00;8.70;;;13.10;99.90;;;;;;5379119;26;20221;-70
2024/04/08 02:26:29;;;;;;;12.30;9.97;;;13.00;99.90;;;;;;5408716;26;20220;-70
2024/04/08 02:28:58;;;;;;;16.03;10.37;;;13.00;99.90;;;;;;5414726;26;20212;-71
2024/04/08 02:31:23;;;;;;;12.97;10.30;;;13.00;99.90;;;;;;5414755;26;20224;-70
2024/04/08 02:33:49;;;;;;;15.97;9.93;;;13.00;99.90;;;;;;5414789;26;20239;-71
2024/04/08 02:36:14;;;;;;;14.80;10.37;;;13.00;99.90;;;;;;5413926;26;20715;-71
2024/04/08 02:38:40;;;;;;;14.00;10.83;;;13.00;99.90;;;;;;5413952;26;20224;-71
2024/04/08 02:41:06;;;;;;;15.60;11.23;;;13.00;99.90;;;;;;5414671;26;20224;-71
2024/04/08 02:43:32;;;;;;;17.80;10.90;;;13.00;99.90;;;;;;5414390;26;20324;-72
2024/04/08 02:45:58;;;;;;;15.80;11.57;;;13.00;99.90;;;;;;5414843;26;20280;-71
2024/04/08 02:48:24;;;;;;;16.23;10.83;;;13.10;99.90;;;;;;5414304;26;20730;-71
2024/04/08 02:50:51;;;;;;;17.20;11.07;;;13.20;99.90;;;;;;5414865;26;20256;-71
2024/04/08 02:53:16;;;;;;;14.53;10.60;;;13.10;99.90;;;;;;5385740;26;20222;-70
2024/04/08 02:55:42;;;;;;;14.00;10.83;;;13.10;99.90;;;;;;5379488;26;20213;-70
2024/04/08 02:58:08;;;;;;;18.60;11.80;;;13.10;99.90;;;;;;5379473;26;20260;-71
2024/04/08 03:00:40;;;;;;;15.67;11.30;;;13.20;99.90;;;;;;5380593;26;20739;-71
2024/04/08 03:03:06;;;;;;;13.67;11.07;;;13.10;99.90;;;;;;5380018;26;20607;-71
2024/04/08 03:05:32;;;;;;;18.00;11.47;;;13.00;99.90;;;;;;5380067;26;20323;-70
2024/04/08 03:07:58;;;;;;;15.30;12.03;;;13.00;99.90;;;;;;5380822;26;20272;-71
2024/04/08 03:10:24;;;;;;;20.17;13.43;;;13.00;99.90;;;;;;5383600;26;20701;-71
2024/04/08 03:12:49;;;;;;;18.67;11.87;;;13.00;99.90;;;;;;5383837;26;20218;-71
2024/04/08 03:15:15;;;;;;;19.27;12.77;;;13.00;99.90;;;;;;5382751;26;20311;-70
2024/04/08 03:17:40;;;;;;;18.10;12.33;;;13.00;99.90;;;;;;5382022;26;20244;-71
2024/04/08 03:20:07;;;;;;;18.10;12.10;;;12.90;99.90;;;;;;5396880;26;20271;-71
2024/04/08 03:22:33;;;;;;;20.10;13.07;;;12.90;99.90;;;;;;5417413;26;20221;-71
2024/04/08 03:24:58;;;;;;;23.33;14.40;;;13.00;99.90;;;;;;5413322;26;20283;-71
2024/04/08 03:27:24;;;;;;;21.57;14.73;;;13.00;99.90;;;;;;5382016;26;20205;-71
2024/04/08 03:29:53;;;;;;;24.27;15.83;;;13.00;99.90;;;;;;5382133;26;20797;-71
2024/04/08 03:32:19;;;;;;;23.47;15.23;;;13.00;99.90;;;;;;5382117;26;20268;-71
2024/04/08 03:34:44;;;;;;;29.13;15.67;;;13.00;99.90;;;;;;5381768;26;20210;-70
2024/04/08 03:37:10;;;;;;;24.07;15.23;;;13.00;99.90;;;;;;5381563;26;20257;-70
2024/04/08 03:39:36;;;;;;;23.83;15.27;;;13.00;99.90;;;;;;5382491;26;20552;-71
2024/04/08 03:42:02;;;;;;;21.77;14.63;;;13.10;99.90;;;;;;5381864;26;20221;-71
2024/04/08 03:44:27;;;;;;;26.10;15.13;;;13.10;99.90;;;;;;5381977;26;20213;-71
2024/04/08 03:46:53;;;;;;;23.00;15.77;;;13.10;99.90;;;;;;5381473;26;20213;-71
2024/04/08 03:49:18;;;;;;;22.53;13.83;;;13.10;99.90;;;;;;5417073;26;20721;-71
2024/04/08 03:51:45;;;;;;;25.77;15.07;;;13.10;99.90;;;;;;5417386;26;20219;-71
2024/04/08 03:54:10;;;;;;;22.27;13.13;;;13.00;99.90;;;;;;5416985;26;20268;-71
2024/04/08 03:56:36;;;;;;;21.70;14.80;;;13.00;99.90;;;;;;5417359;26;20204;-71
2024/04/08 03:59:02;;;;;;;23.17;15.13;;;13.00;99.90;;;;;;5416504;26;20208;-71
2024/04/08 04:01:29;;;;;;;20.07;14.23;;;12.90;99.90;;;;;;5416859;26;20212;-71
2024/04/08 04:03:54;;;;;;;21.40;14.37;;;12.90;99.90;;;;;;5416459;26;20586;-70
2024/04/08 04:06:20;;;;;;;26.97;15.63;;;12.90;99.90;;;;;;5417131;26;20262;-71
2024/04/08 04:08:46;;;;;;;30.20;17.13;;;12.90;99.90;;;;;;5416584;26;20325;-71
2024/04/08 04:11:11;;;;;;;32.07;16.70;;;12.80;99.90;;;;;;5416713;26;20680;-71
2024/04/08 04:13:37;;;;;;;29.20;17.53;;;12.70;99.90;;;;;;5416534;26;20208;-71
2024/04/08 04:16:03;;;;;;;31.23;17.73;;;12.70;99.90;;;;;;5395803;26;20268;-71
2024/04/08 04:18:29;;;;;;;30.33;17.40;;;12.70;99.90;;;;;;5380376;26;20209;-71
2024/04/08 04:20:54;;;;;;;27.47;17.40;;;12.80;99.90;;;;;;5381140;26;20248;-71
2024/04/08 04:23:21;;;;;;;24.80;16.23;;;12.80;99.90;;;;;;5380635;26;20251;-70
2024/04/08 04:25:57;;;;;;;27.30;17.70;;;12.80;99.90;;;;;;5380960;26;20213;-71
2024/04/08 04:28:23;;;;;;;29.73;18.03;;;12.80;99.90;;;;;;5380960;26;20288;-71
2024/04/08 04:30:53;;;;;;;31.43;17.87;;;12.90;99.90;;;;;;5400952;26;20232;-71
2024/04/08 04:33:18;;;;;;;27.73;17.80;;;12.90;99.90;;;;;;5416325;26;20568;-71
2024/04/08 04:35:52;;;;;;;31.83;19.03;;;12.90;99.90;;;;;;5416360;26;20258;-71
2024/04/08 04:38:17;;;;;;;27.63;18.93;;;12.90;99.90;;;;;;5415915;26;20258;-71
2024/04/08 04:40:43;;;;;;;27.57;18.27;;;12.90;99.90;;;;;;5416271;26;20220;-71
2024/04/08 04:43:08;;;;;;;32.87;20.30;;;12.90;99.90;;;;;;5380062;26;20280;-71
2024/04/08 04:45:34;;;;;;;30.70;19.07;;;12.90;99.90;;;;;;5380533;26;20205;-71
2024/04/08 04:47:59;;;;;;;30.67;19.20;;;12.90;99.90;;;;;;5380465;26;20320;-71
2024/04/08 04:50:25;;;;;;;30.43;19.90;;;12.90;99.90;;;;;;5380925;26;20256;-71
2024/04/08 04:52:51;;;;;;;32.57;19.83;;;12.90;99.90;;;;;;5380709;26;20701;-71
2024/04/08 04:55:16;;;;;;;33.33;19.90;;;12.90;99.90;;;;;;5380464;26;20256;-71
2024/04/08 04:57:42;;;;;;;37.67;20.37;;;13.00;99.90;;;;;;5379948;26;20731;-71
2024/04/08 05:00:09;;;;;;;31.90;20.70;;;12.90;99.90;;;;;;5380940;26;20209;-71
2024/04/08 05:02:35;;;;;;;36.13;21.63;;;13.00;99.90;;;;;;5380319;26;20701;-71
2024/04/08 05:05:00;;;;;;;35.07;22.47;;;12.90;99.90;;;;;;5380396;26;20209;-71
2024/04/08 05:07:26;;;;;;;32.80;21.23;;;12.90;99.90;;;;;;5380100;26;20218;-71
2024/04/08 05:09:53;;;;;;;33.83;22.23;;;12.90;99.90;;;;;;5399339;26;20236;-71
2024/04/08 05:12:19;;;;;;;33.83;20.27;;;12.80;99.90;;;;;;5415602;26;20224;-71
2024/04/08 05:14:44;;;;;;;30.53;21.50;;;12.90;99.90;;;;;;5415216;26;20605;-71
2024/04/08 05:17:10;;;;;;;31.57;22.57;;;12.90;99.90;;;;;;5415250;26;20206;-71
2024/04/08 05:19:36;;;;;;;34.53;21.97;;;13.00;99.90;;;;;;5415318;26;20263;-71
2024/04/08 05:22:03;;;;;;;32.90;20.80;;;13.00;99.90;;;;;;5415674;26;20224;-71
2024/04/08 05:24:29;;;;;;;33.83;20.17;;;13.00;99.90;;;;;;5415039;26;20489;-70
2024/04/08 05:26:55;;;;;;;34.60;20.30;;;13.10;99.90;;;;;;5415432;26;20208;-70
2024/04/08 05:29:23;;;;;;;32.23;21.43;;;13.30;99.90;;;;;;5414759;26;20255;-71
2024/04/08 05:31:50;;;;;;;32.13;21.10;;;13.40;99.90;;;;;;5414582;26;20220;-71
2024/04/08 05:34:15;;;;;;;30.77;21.93;;;13.50;99.90;;;;;;5415460;26;20299;-71
2024/04/08 05:36:41;;;;;;;36.67;21.90;;;13.60;99.90;;;;;;5409485;26;20232;-70
2024/04/08 05:39:07;;;;;;;30.63;20.60;;;13.70;99.90;;;;;;5379179;26;20697;-70
2024/04/08 05:41:32;;;;;;;36.40;19.57;;;13.80;99.90;;;;;;5379306;26;20225;-71
2024/04/08 05:43:58;;;;;;;30.17;19.83;;;13.90;99.90;;;;;;5380044;26;20296;-70
2024/04/08 05:46:24;;;;;;;29.33;19.43;;;14.00;99.90;;;;;;5379649;26;20326;-71
2024/04/08 05:48:50;;;;;;;27.00;19.20;;;14.00;99.90;;;;;;5378756;26;20609;-71
2024/04/08 05:51:16;;;;;;;31.70;19.93;;;14.00;99.90;;;;;;5410920;26;20231;-71
2024/04/08 05:53:41;;;;;;;31.10;20.27;;;14.00;99.90;;;;;;5414963;26;20204;-71
2024/04/08 05:56:07;;;;;;;31.33;19.83;;;14.00;99.90;;;;;;5415133;26;20596;-71
2024/04/08 05:58:33;;;;;;;34.03;19.60;;;14.00;99.90;;;;;;5414548;26;20251;-71
2024/04/08 06:00:58;;;;;;;28.07;17.07;;;14.10;99.90;;;;;;5415357;26;20321;-70
2024/04/08 06:03:24;;;;;;;28.97;18.27;;;14.10;99.90;;;;;;5398279;26;20359;-70
2024/04/08 06:05:51;;;;;;;23.83;17.70;;;14.20;99.90;;;;;;5379840;26;20307;-71
2024/04/08 06:08:17;;;;;;;27.43;17.03;;;14.30;99.90;;;;;;5379186;26;20209;-71
2024/04/08 06:10:46;;;;;;;26.87;17.73;;;14.30;99.90;;;;;;5379320;26;20319;-71
2024/04/08 06:13:11;;;;;;;28.30;18.43;;;14.40;99.90;;;;;;5380686;26;20241;-71
2024/04/08 06:15:37;;;;;;;23.30;16.70;;;14.60;99.90;;;;;;5379430;26;20637;-71
2024/04/08 06:18:03;;;;;;;27.17;16.47;;;14.60;99.90;;;;;;5379075;26;20568;-71
2024/04/08 06:20:28;;;;;;;29.50;17.20;;;14.70;99.90;;;;;;5379384;26;20314;-71
2024/04/08 06:22:54;;;;;;;28.07;15.90;;;15.10;99.90;;;;;;5411750;26;20570;-71
2024/04/08 06:25:20;;;;;;;24.53;16.53;;;15.60;99.90;;;;;;5414545;26;20677;-71
2024/04/08 06:27:47;;;;;;;23.13;13.97;;;16.10;99.90;;;;;;5414445;26;20730;-71
2024/04/08 06:30:12;;;;;;;18.07;12.90;;;16.60;99.90;;;;;;5412197;26;20763;-71
2024/04/08 06:32:38;;;;;;;18.90;11.50;;;16.90;99.90;;;;;;5414119;26;20228;-71
2024/04/08 06:35:04;;;;;;;14.03;9.93;;;17.20;99.90;;;;;;5414276;26;20212;-71
2024/04/08 06:37:29;;;;;;;12.48;9.20;;;17.60;99.90;;;;;;5414072;26;20212;-71
2024/04/08 06:39:55;;;;;;;8.53;7.43;;;17.90;99.90;;;;;;5414128;26;20213;-71
2024/04/08 06:42:21;;;;;;;11.05;7.97;;;18.30;99.90;;;;;;5415459;26;20623;-71
2024/04/08 06:44:50;;;;;;;10.05;7.20;;;18.50;99.90;;;;;;5417219;26;20246;-71
2024/04/08 06:47:16;;;;;;;14.00;7.75;;;18.60;99.90;;;;;;5382003;26;20256;-71
2024/04/08 06:49:44;;;;;;;9.40;7.07;;;18.90;99.90;;;;;;5381696;26;20209;-71
2024/04/08 06:52:09;;;;;;;8.15;6.63;;;19.10;99.90;;;;;;5380437;26;20591;-71
2024/04/08 06:54:35;;;;;;;11.23;7.22;;;19.50;99.90;;;;;;5383975;26;20213;-71
2024/04/08 06:57:00;;;;;;;10.73;6.97;;;19.80;99.90;;;;;;5382488;26;20292;-72
2024/04/08 06:59:27;;;;;;;7.55;6.43;;;19.90;99.90;;;;;;5402746;26;20797;-71
2024/04/08 07:01:53;;;;;;;8.27;7.03;;;20.00;99.90;;;;;;5417268;26;20220;-71
2024/04/08 07:04:21;;;;;;;9.45;6.45;;;20.10;99.90;;;;;;5415934;26;20605;-71
2024/04/08 07:06:46;;;;;;;10.88;6.30;;;20.00;99.90;;;;;;5417370;26;20572;-70
2024/04/08 07:09:12;;;;;;;6.78;5.85;;;20.00;99.90;;;;;;5416795;26;20216;-70
2024/04/08 07:11:38;;;;;;;11.90;8.15;;;19.80;99.90;;;;;;5416744;26;20232;-71
2024/04/08 07:14:03;;;;;;;10.80;7.10;;;19.70;99.90;;;;;;5416942;26;20220;-71
2024/04/08 07:16:29;;;;;;;8.35;7.18;;;19.90;99.90;;;;;;5416791;26;20255;-71
2024/04/08 07:18:54;;;;;;;12.07;7.18;;;20.10;99.90;;;;;;5416493;26;20209;-71
2024/04/08 07:21:21;;;;;;;10.80;7.15;;;20.20;99.90;;;;;;5382790;26;20233;-71
2024/04/08 07:23:51;;;;;;;9.73;6.93;;;20.30;99.90;;;;;;5381604;26;20810;-71
2024/04/08 07:26:17;;;;;;;9.02;6.38;;;20.50;99.90;;;;;;5387229;26;20731;-70
2024/04/08 07:28:44;;;;;;;7.72;5.82;;;20.50;99.90;;;;;;5416036;26;20235;-71
2024/04/08 07:31:10;;;;;;;7.57;6.05;;;20.40;99.90;;;;;;5416873;26;20294;-71
2024/04/08 07:33:35;;;;;;;6.68;4.70;;;20.50;99.90;;;;;;5416700;26;20216;-71
2024/04/08 07:36:01;;;;;;;6.65;4.88;;;20.60;99.90;;;;;;5417058;26;20209;-71
2024/04/08 07:38:26;;;;;;;8.75;5.00;;;20.60;99.90;;;;;;5396326;26;20217;-70
2024/04/08 07:40:52;;;;;;;8.13;6.00;;;20.30;99.90;;;;;;5408287;26;20718;-70
2024/04/08 07:43:18;;;;;;;9.27;5.78;;;20.40;99.90;;;;;;5416353;26;20216;-70
2024/04/08 07:45:43;;;;;;;12.13;5.32;;;20.30;99.90;;;;;;5416420;26;20681;-71
2024/04/08 07:48:09;;;;;;;8.15;6.65;;;20.10;99.90;;;;;;5409207;26;20672;-71
2024/04/08 07:50:37;;;;;;;9.05;6.88;;;20.30;99.90;;;;;;5381253;26;20256;-70
2024/04/08 07:53:03;;;;;;;8.80;6.13;;;20.50;99.90;;;;;;5380609;26;20260;-70
2024/04/08 07:55:28;;;;;;;10.18;6.10;;;20.70;99.90;;;;;;5380722;26;20221;-70
2024/04/08 07:57:54;;;;;;;10.82;6.05;;;20.90;99.90;;;;;;5380832;26;20347;-71
2024/04/08 08:00:20;;;;;;;8.48;6.68;;;21.10;99.90;;;;;;5381259;26;20221;-70
2024/04/08 08:02:45;;;;;;;9.82;6.47;;;21.20;99.90;;;;;;5380612;26;20333;-71
2024/04/08 08:05:11;;;;;;;16.17;8.18;;;21.20;99.90;;;;;;5381061;26;20213;-71
2024/04/08 08:07:36;;;;;;;8.23;6.25;;;21.30;99.90;;;;;;5380508;26;20314;-71
2024/04/08 08:10:02;;;;;;;10.20;6.57;;;21.20;99.90;;;;;;5381000;26;20251;-71
2024/04/08 08:12:28;;;;;;;8.82;5.88;;;21.30;99.90;;;;;;5381171;26;20229;-71
2024/04/08 08:14:53;;;;;;;7.88;5.85;;;21.20;99.90;;;;;;5384033;26;20233;-70
2024/04/08 08:17:23;;;;;;;7.72;6.00;;;21.00;99.90;;;;;;5398429;26;20220;-70
2024/04/08 08:19:50;;;;;;;11.57;6.68;;;20.90;99.90;;;;;;5409602;26;20275;-71
2024/04/08 08:22:16;;;;;;;8.73;6.20;;;20.80;99.90;;;;;;5387724;26;20693;-71
2024/04/08 08:24:42;;;;;;;10.65;6.30;;;20.80;99.90;;;;;;5409285;26;20267;-70
2024/04/08 08:27:08;;;;;;;10.32;6.93;;;20.70;99.90;;;;;;5412763;26;20254;-71
2024/04/08 08:29:34;;;;;;;8.88;7.10;;;20.70;99.90;;;;;;5380173;26;20205;-71
2024/04/08 08:32:01;;;;;;;8.98;6.45;;;20.70;99.90;;;;;;5380564;26;20731;-71
2024/04/08 08:34:27;;;;;;;11.45;7.35;;;20.90;99.90;;;;;;5380984;26;20636;-70
2024/04/08 08:36:52;;;;;;;8.35;7.38;;;21.00;99.90;;;;;;5380111;26;20275;-71
2024/04/08 08:39:18;;;;;;;9.50;6.53;;;21.30;99.90;;;;;;5384306;26;20205;-71
2024/04/08 08:41:47;;;;;;;11.55;7.10;;;21.80;99.90;;;;;;5415159;26;20259;-71
2024/04/08 08:44:13;;;;;;;13.13;6.22;;;22.20;99.90;;;;;;5415886;26;20902;-73
2024/04/08 08:46:38;;;;;;;11.48;6.60;;;22.60;99.90;;;;;;5415797;26;20204;-72
2024/04/08 08:49:05;;;;;;;10.70;7.25;;;22.70;99.90;;;;;;5415456;26;20204;-71
2024/04/08 08:51:32;;;;;;;8.05;6.78;;;22.80;99.90;;;;;;5415629;26;20596;-71
2024/04/08 08:53:58;;;;;;;9.75;7.05;;;22.80;99.90;;;;;;5404822;26;20225;-72
2024/04/08 08:56:26;;;;;;;8.27;7.18;;;22.90;99.90;;;;;;5381980;26;20763;-72
2024/04/08 08:58:55;;;;;;;10.80;8.57;;;23.00;99.90;;;;;;5380230;26;20351;-71
2024/04/08 09:01:21;;;;;;;10.77;8.63;;;23.10;99.90;;;;;;5379907;26;20281;-71
2024/04/08 09:03:47;;;;;;;9.80;8.20;;;23.20;99.90;;;;;;5380129;26;20689;-71
2024/04/08 09:06:14;;;;;;;12.48;8.77;;;23.10;99.90;;;;;;5378933;26;20213;-70
2024/04/08 09:08:40;;;;;;;17.13;9.07;;;23.10;99.90;;;;;;5383274;26;20260;-72
2024/04/08 09:11:06;;;;;;;13.63;9.32;;;23.00;99.90;;;;;;5395880;26;20255;-71
2024/04/08 09:13:33;;;;;;;12.18;8.55;;;23.00;99.90;;;;;;5379802;26;20293;-72
2024/04/08 09:15:59;;;;;;;11.55;8.38;;;23.00;99.90;;;;;;5379925;26;20251;-71
2024/04/08 09:18:24;;;;;;;12.85;8.70;;;23.10;99.90;;;;;;5398307;26;20227;-71
2024/04/08 09:20:51;;;;;;;15.60;8.52;;;23.20;99.90;;;;;;5415078;26;20293;-71
2024/04/08 09:23:17;;;;;;;13.70;9.73;;;23.30;99.90;;;;;;5414813;26;20661;-71
2024/04/08 09:25:43;;;;;;;12.70;9.85;;;23.30;99.90;;;;;;5415267;26;20264;-71
2024/04/08 09:28:11;;;;;;;12.35;8.95;;;23.60;99.90;;;;;;5415033;26;20212;-71
2024/04/08 09:30:37;;;;;;;15.18;8.80;;;23.80;99.90;;;;;;5415036;26;20243;-72
2024/04/08 09:33:04;;;;;;;9.73;8.00;;;24.00;99.90;;;;;;5414897;26;20216;-72
2024/04/08 09:35:40;;;;;;;12.40;8.50;;;24.10;99.90;;;;;;5414956;26;20213;-71
2024/04/08 09:38:11;;;;;;;11.18;8.15;;;24.30;99.90;;;;;;5414154;26;20635;-72
2024/04/08 09:40:39;;;;;;;10.60;8.48;;;24.20;99.90;;;;;;5414933;26;20558;-72
2024/04/08 09:43:05;;;;;;;11.40;8.32;;;24.20;99.90;;;;;;5414935;26;20256;-71
2024/04/08 09:45:38;;;;;;;11.45;7.55;;;24.10;99.90;;;;;;5406776;26;20225;-71
2024/04/08 09:48:05;;;;;;;11.90;7.88;;;24.20;99.90;;;;;;5379443;26;20301;-72
2024/04/08 09:50:33;;;;;;;10.57;8.30;;;24.20;99.90;;;;;;5379407;26;20835;-72
2024/04/08 09:52:59;;;;;;;11.75;8.38;;;24.30;99.90;;;;;;5378981;26;20752;-71
2024/04/08 09:55:28;;;;;;;10.30;7.90;;;24.40;99.90;;;;;;5379299;26;20213;-72
2024/04/08 09:57:58;;;;;;;11.13;7.60;;;24.60;99.90;;;;;;5379400;26;20281;-71
2024/04/08 10:00:32;;;;;;;9.45;7.57;;;24.60;99.90;;;;;;5380186;26;20342;-71
2024/04/08 10:03:10;;;;;;;13.02;6.72;;;24.60;99.90;;;;;;5379738;26;20220;-72
2024/04/08 10:05:36;;;;;;;11.43;7.07;;;24.60;99.90;;;;;;5410401;26;20223;-71
2024/04/08 10:08:02;;;;;;;12.52;7.60;;;24.60;99.90;;;;;;5414671;26;20208;-71
2024/04/08 10:10:29;;;;;;;15.48;8.20;;;24.70;99.90;;;;;;5414980;26;20242;-71
2024/04/08 10:12:59;;;;;;;10.85;7.05;;;24.60;99.90;;;;;;5411071;26;20223;-72
2024/04/08 10:15:31;;;;;;;14.38;6.80;;;24.60;99.90;;;;;;5378948;26;20213;-72
2024/04/08 10:17:57;;;;;;;10.43;6.80;;;24.60;99.90;;;;;;5378173;26;20216;-73
2024/04/08 10:20:24;;;;;;;12.85;7.65;;;24.70;99.90;;;;;;5394849;26;20276;-72
2024/04/08 10:22:51;;;;;;;9.50;6.57;;;24.80;99.90;;;;;;5414338;26;20235;-72
2024/04/08 10:25:41;;;;;;;9.75;6.13;;;24.80;99.90;;;;;;5414351;26;20263;-72
2024/04/08 10:28:14;;;;;;;9.18;6.07;;;24.80;99.90;;;;;;5413524;26;20224;-72
2024/04/08 10:30:42;;;;;;;12.50;6.40;;;24.80;99.90;;;;;;5414795;26;20626;-72
2024/04/08 10:33:08;;;;;;;11.57;6.65;;;24.90;99.90;;;;;;5414947;26;20293;-73
2024/04/08 10:35:34;;;;;;;8.75;6.65;;;24.90;99.90;;;;;;5414316;26;20224;-72
2024/04/08 10:37:59;;;;;;;12.05;6.50;;;25.00;99.90;;;;;;5414399;26;20212;-72
2024/04/08 10:40:25;;;;;;;9.30;6.28;;;24.90;99.90;;;;;;5414612;26;20316;-72
2024/04/08 10:42:52;;;;;;;13.48;7.03;;;24.70;99.90;;;;;;5411308;26;20386;-72
2024/04/08 10:45:19;;;;;;;8.80;6.30;;;24.40;99.90;;;;;;5414302;26;20286;-72
2024/04/08 10:47:45;;;;;;;7.97;5.88;;;24.20;99.90;;;;;;5413715;26;20204;-73
2024/04/08 10:50:12;;;;;;;9.38;6.68;;;24.20;99.90;;;;;;5414350;26;20978;-72
2024/04/08 10:52:39;;;;;;;8.38;5.88;;;24.20;99.90;;;;;;5413915;26;20220;-72
2024/04/08 10:55:06;;;;;;;8.75;6.03;;;24.10;99.90;;;;;;5414228;26;20212;-72
2024/04/08 10:57:32;;;;;;;12.05;6.32;;;24.30;99.90;;;;;;5414143;26;20279;-73
2024/04/08 10:59:58;;;;;;;11.43;7.13;;;24.40;99.90;;;;;;5414583;26;20212;-72
2024/04/08 11:02:24;;;;;;;12.02;6.55;;;24.50;99.90;;;;;;5414424;26;20236;-72
2024/04/08 11:04:50;;;;;;;13.23;6.15;;;24.50;99.90;;;;;;5413695;26;20262;-72
2024/04/08 11:07:16;;;;;;;9.93;6.20;;;24.60;99.90;;;;;;5414035;26;20258;-72
2024/04/08 11:09:42;;;;;;;10.15;5.88;;;24.70;99.90;;;;;;5411750;26;20220;-72
2024/04/08 11:12:07;;;;;;;8.02;5.78;;;24.80;99.90;;;;;;5382875;26;20283;-72
2024/04/08 11:14:34;;;;;;;8.32;5.90;;;24.90;99.90;;;;;;5378964;26;20310;-72
2024/04/08 11:17:08;;;;;;;8.00;6.30;;;24.80;99.90;;;;;;5378017;26;20205;-72
2024/04/08 11:19:37;;;;;;;14.35;6.82;;;24.70;99.90;;;;;;5378923;26;20251;-72
2024/04/08 11:22:07;;;;;;;9.55;6.10;;;24.80;99.90;;;;;;5378451;26;20259;-72
2024/04/08 11:24:32;;;;;;;9.05;5.80;;;25.00;99.90;;;;;;5378305;26;20764;-72
2024/04/08 11:26:58;;;;;;;10.70;6.10;;;25.50;99.90;;;;;;5378361;26;20276;-72
2024/04/08 11:29:24;;;;;;;7.85;5.68;;;26.00;99.90;;;;;;5379366;26;20210;-72
2024/04/08 11:31:49;;;;;;;11.10;5.88;;;26.30;99.90;;;;;;5381631;26;20267;-72
2024/04/08 11:34:15;;;;;;;12.55;6.30;;;26.20;99.90;;;;;;5381552;26;20351;-72
2024/04/08 11:36:41;;;;;;;13.18;5.85;;;26.40;99.90;;;;;;5381727;26;20217;-72
2024/04/08 11:39:07;;;;;;;11.10;6.15;;;26.60;99.90;;;;;;5383122;26;20229;-73
2024/04/08 11:41:32;;;;;;;11.48;6.00;;;26.60;99.90;;;;;;5381669;26;20225;-72
2024/04/08 11:43:58;;;;;;;8.93;5.50;;;26.50;99.90;;;;;;5400355;26;20504;-72
2024/04/08 11:46:24;;;;;;;14.52;6.55;;;26.50;99.90;;;;;;5417141;26;20208;-72
2024/04/08 11:48:49;;;;;;;10.00;5.82;;;26.60;99.90;;;;;;5416452;26;20216;-72
2024/04/08 11:51:15;;;;;;;12.07;5.07;;;26.50;99.90;;;;;;5417174;26;20216;-73
2024/04/08 11:53:41;;;;;;;7.35;5.20;;;26.60;99.90;;;;;;5416948;26;20599;-73
2024/04/08 11:56:08;;;;;;;8.13;5.45;;;26.80;99.90;;;;;;5388823;26;20272;-72
2024/04/08 11:58:34;;;;;;;18.35;5.63;;;26.80;99.90;;;;;;5381737;26;20221;-72
2024/04/08 12:01:02;;;;;;;9.90;5.40;;;26.60;99.90;;;;;;5381021;26;20213;-72
2024/04/08 12:03:27;;;;;;;9.38;5.38;;;26.50;99.90;;;;;;5380957;26;20229;-72
2024/04/08 12:05:53;;;;;;;10.23;5.15;;;26.60;99.90;;;;;;5380705;26;20814;-71
2024/04/08 12:08:19;;;;;;;9.20;4.80;;;26.80;99.90;;;;;;5380654;26;20301;-72
2024/04/08 12:10:44;;;;;;;7.82;4.68;;;27.00;99.90;;;;;;5385351;26;21008;-71
2024/04/08 12:13:18;;;;;;;13.68;6.40;;;27.10;99.90;;;;;;5417638;26;20220;-71
2024/04/08 12:15:44;;;;;;;8.50;5.78;;;26.80;99.90;;;;;;5417045;26;20761;-72
2024/04/08 12:18:10;;;;;;;8.80;4.95;;;26.50;99.90;;;;;;5415276;26;20610;-71
2024/04/08 12:20:36;;;;;;;10.93;4.72;;;26.30;99.90;;;;;;5416364;26;20208;-71
2024/04/08 12:23:02;;;;;;;13.43;6.85;;;26.00;99.90;;;;;;5413723;26;20762;-72
2024/04/08 12:25:28;;;;;;;10.77;6.60;;;25.80;99.90;;;;;;5380725;26;20221;-72
2024/04/08 12:27:54;;;;;;;9.00;5.78;;;25.30;99.90;;;;;;5380097;26;20252;-72
2024/04/08 12:30:19;;;;;;;7.90;6.57;;;25.00;99.90;;;;;;5380677;26;20280;-72